createdAt,value
2023-01-15T00:00:09.195Z,92.95
2023-01-15T00:02:37.415Z,93.16
2023-01-15T00:05:05.619Z,93.28
2023-01-15T00:07:33.356Z,94.48
2023-01-15T00:10:01.046Z,95.12
2023-01-15T00:12:28.697Z,95.52
2023-01-15T00:14:58.382Z,94.18
2023-01-15T00:17:26.584Z,94.32
2023-01-15T00:19:54.252Z,94.63
2023-01-15T00:22:21.853Z,94.65
2023-01-15T00:25:08.042Z,94.51
2023-01-15T00:27:38.834Z,95.04
2023-01-15T00:30:07.992Z,95.05
2023-01-15T00:32:43.047Z,95.44
2023-01-15T00:35:14.236Z,95.39
2023-01-15T00:37:44.703Z,95.64
2023-01-15T00:40:13.393Z,94.93
2023-01-15T00:42:41.166Z,95.03
2023-01-15T00:45:10.663Z,94.88
2023-01-15T00:47:40.263Z,94.61
2023-01-15T00:50:10.360Z,94.45
2023-01-15T00:52:38.853Z,94.49
2023-01-15T00:55:07.082Z,94.92
2023-01-15T00:57:35.341Z,95.19
2023-01-15T01:00:04.382Z,95.34
2023-01-15T01:02:32.418Z,94.92
2023-01-15T01:05:01.015Z,95.22
2023-01-15T01:07:28.764Z,95.56
2023-01-15T01:09:56.643Z,95.52
2023-01-15T01:12:24.292Z,95.04
2023-01-15T01:14:52.230Z,94.53
2023-01-15T01:17:20.305Z,94.52
2023-01-15T01:19:48.714Z,94.56
2023-01-15T01:22:16.441Z,94.48
2023-01-15T01:24:44.143Z,94.62
2023-01-15T01:27:12.012Z,94.65
2023-01-15T01:29:39.949Z,94.53
2023-01-15T01:32:07.547Z,95.38
2023-01-15T01:34:39.212Z,94.91
2023-01-15T01:37:06.907Z,94.96
2023-01-15T01:39:34.543Z,94.56
2023-01-15T01:42:02.201Z,95.13
2023-01-15T01:44:33.343Z,95.85
2023-01-15T01:47:01.752Z,95.95
2023-01-15T01:49:29.600Z,95.80
2023-01-15T01:52:08.439Z,95.72
2023-01-15T01:54:36.425Z,95.31
2023-01-15T01:57:04.336Z,95.22
2023-01-15T01:59:32.269Z,95.13
2023-01-15T02:02:00.085Z,95.05
2023-01-15T02:04:27.901Z,94.77
2023-01-15T02:06:55.476Z,94.61
2023-01-15T02:09:23.619Z,94.77
2023-01-15T02:11:55.866Z,94.63
2023-01-15T02:14:48.054Z,94.85
2023-01-15T02:17:20.825Z,94.64
2023-01-15T02:20:24.236Z,93.97
2023-01-15T02:23:22.720Z,93.59
2023-01-15T02:26:14.664Z,94.02
2023-01-15T02:28:43.719Z,94.76
2023-01-15T02:31:27.447Z,95.14
2023-01-15T02:34:10.472Z,94.86
2023-01-15T02:36:41.399Z,94.49
2023-01-15T02:39:15.669Z,94.49
2023-01-15T02:41:45.910Z,94.13
2023-01-15T02:44:14.643Z,94.06
2023-01-15T02:46:42.402Z,93.88
2023-01-15T02:49:13.903Z,94.15
2023-01-15T02:51:55.397Z,94.01
2023-01-15T02:54:24.467Z,93.84
2023-01-15T02:56:52.757Z,93.92
2023-01-15T02:59:23.358Z,93.81
2023-01-15T03:01:57.283Z,93.80
2023-01-15T03:04:46.732Z,93.39
2023-01-15T03:07:26.739Z,94.18
2023-01-15T03:09:55.729Z,93.96
2023-01-15T03:12:28.547Z,94.50
2023-01-15T03:15:42.955Z,94.77
2023-01-15T03:18:11.724Z,94.78
2023-01-15T03:20:41.567Z,94.11
2023-01-15T03:23:12.371Z,94.10
2023-01-15T03:25:42.860Z,94.32
2023-01-15T03:28:10.986Z,94.81
2023-01-15T03:30:40.315Z,94.37
2023-01-15T03:33:11.759Z,94.73
2023-01-15T03:35:48.011Z,95.82
2023-01-15T03:38:38.901Z,95.03
2023-01-15T03:41:26.303Z,94.67
2023-01-15T03:44:15.749Z,94.37
2023-01-15T03:47:21.472Z,94.42
2023-01-15T03:49:55.428Z,94.69
2023-01-15T03:52:48.668Z,95.39
2023-01-15T03:55:20.108Z,94.41
2023-01-15T03:58:00.148Z,95.17
2023-01-15T04:00:35.977Z,95.01
2023-01-15T04:03:05.220Z,94.73
2023-01-15T04:05:34.682Z,95.33
2023-01-15T04:08:03.998Z,95.04
2023-01-15T04:10:32.975Z,94.81
2023-01-15T04:13:02.623Z,94.82
2023-01-15T04:15:30.407Z,94.58
2023-01-15T04:17:58.123Z,94.03
2023-01-15T04:20:28.448Z,94.59
2023-01-15T04:22:59.594Z,94.64
2023-01-15T04:25:27.236Z,94.63
2023-01-15T04:27:55.413Z,94.38
2023-01-15T04:30:25.584Z,93.86
2023-01-15T04:32:53.294Z,93.84
2023-01-15T04:35:20.991Z,94.54
2023-01-15T04:37:59.120Z,94.73
2023-01-15T04:40:45.265Z,94.54
2023-01-15T04:43:32.483Z,94.12
2023-01-15T04:46:00.276Z,93.58
2023-01-15T04:48:27.917Z,93.78
2023-01-15T04:50:55.671Z,93.39
2023-01-15T04:53:23.421Z,93.37
2023-01-15T04:55:51.113Z,93.29
2023-01-15T04:58:18.777Z,93.52
2023-01-15T05:00:46.339Z,93.24
2023-01-15T05:03:13.943Z,93.71
2023-01-15T05:05:41.645Z,94.19
2023-01-15T05:08:09.451Z,93.75
2023-01-15T05:10:37.325Z,93.46
2023-01-15T05:13:05.174Z,93.01
2023-01-15T05:15:33.162Z,93.21
2023-01-15T05:18:00.762Z,93.19
2023-01-15T05:20:28.628Z,93.41
2023-01-15T05:22:56.412Z,94.00
2023-01-15T05:25:28.021Z,93.38
2023-01-15T05:27:55.679Z,93.71
2023-01-15T05:30:23.264Z,93.74
2023-01-15T05:32:50.835Z,93.83
2023-01-15T05:35:18.752Z,94.60
2023-01-15T05:37:46.545Z,94.46
2023-01-15T05:40:14.235Z,93.85
2023-01-15T05:42:41.879Z,93.78
2023-01-15T05:45:09.872Z,93.81
2023-01-15T05:47:37.542Z,93.71
2023-01-15T05:50:05.558Z,94.17
2023-01-15T05:52:33.513Z,93.48
2023-01-15T05:55:01.167Z,94.22
2023-01-15T05:57:29.058Z,94.89
2023-01-15T05:59:57.033Z,95.68
2023-01-15T06:02:24.790Z,96.04
2023-01-15T06:04:52.453Z,95.23
2023-01-15T06:07:20.230Z,95.56
2023-01-15T06:09:47.889Z,96.44
2023-01-15T06:12:15.639Z,96.79
2023-01-15T06:14:43.989Z,96.70
2023-01-15T06:17:11.936Z,96.70
2023-01-15T06:19:39.609Z,96.68
2023-01-15T06:22:08.661Z,95.90
2023-01-15T06:24:37.318Z,95.28
2023-01-15T06:27:05.178Z,96.13
2023-01-15T06:29:32.975Z,96.08
2023-01-15T06:32:00.645Z,95.67
2023-01-15T06:34:28.248Z,95.21
2023-01-15T06:36:55.845Z,95.26
2023-01-15T06:39:25.883Z,95.64
2023-01-15T06:42:12.136Z,95.73
2023-01-15T06:44:58.077Z,96.98
2023-01-15T06:47:27.464Z,96.28
2023-01-15T06:49:57.745Z,95.65
2023-01-15T06:52:26.289Z,95.40
2023-01-15T06:54:54.009Z,95.27
2023-01-15T06:57:21.818Z,95.39
2023-01-15T06:59:49.814Z,95.64
2023-01-15T07:02:18.417Z,95.37
2023-01-15T07:04:47.050Z,95.12
2023-01-15T07:07:18.683Z,95.28
2023-01-15T07:09:46.308Z,95.55
2023-01-15T07:12:14.059Z,95.55
2023-01-15T07:14:41.737Z,96.03
2023-01-15T07:17:09.595Z,95.45
2023-01-15T07:19:37.998Z,95.54
2023-01-15T07:22:06.691Z,95.45
2023-01-15T07:24:34.417Z,95.03
2023-01-15T07:27:02.569Z,94.51
2023-01-15T07:29:31.520Z,94.28
2023-01-15T07:31:59.292Z,94.60
2023-01-15T07:34:26.881Z,94.12
2023-01-15T07:36:54.458Z,95.63
2023-01-15T07:39:22.381Z,94.60
2023-01-15T07:42:08.855Z,94.25
2023-01-15T07:44:54.913Z,94.07
2023-01-15T07:47:42.474Z,94.32
2023-01-15T07:50:13.233Z,93.91
2023-01-15T07:52:41.369Z,94.42
2023-01-15T07:55:10.306Z,94.58
2023-01-15T07:57:37.926Z,94.45
2023-01-15T08:00:14.070Z,94.48
2023-01-15T08:02:46.168Z,95.26
2023-01-15T08:05:13.821Z,95.33
2023-01-15T08:07:41.903Z,95.97
2023-01-15T08:10:13.483Z,96.18
2023-01-15T08:12:59.573Z,96.34
2023-01-15T08:15:51.653Z,94.99
2023-01-15T08:18:19.325Z,94.94
2023-01-15T08:20:47.370Z,95.49
2023-01-15T08:23:15.062Z,96.11
2023-01-15T08:25:42.791Z,96.35
2023-01-15T08:28:14.320Z,96.25
2023-01-15T08:30:42.556Z,96.20
2023-01-15T08:33:10.135Z,96.75
2023-01-15T08:35:38.391Z,98.01
2023-01-15T08:38:07.036Z,96.49
2023-01-15T08:40:58.679Z,96.31
2023-01-15T08:43:27.514Z,95.41
2023-01-15T08:46:03.593Z,96.13
2023-01-15T08:48:31.695Z,96.89
2023-01-15T08:50:59.515Z,97.43
2023-01-15T08:53:29.906Z,96.73
2023-01-15T08:55:58.252Z,96.50
2023-01-15T08:58:31.402Z,96.88
2023-01-15T09:01:09.288Z,96.33
2023-01-15T09:03:37.155Z,95.67
2023-01-15T09:06:06.182Z,95.13
2023-01-15T09:08:34.946Z,96.16
2023-01-15T09:11:03.777Z,95.40
2023-01-15T09:13:32.300Z,95.80
2023-01-15T09:16:01.621Z,95.14
2023-01-15T09:18:30.468Z,94.61
2023-01-15T09:20:58.858Z,94.03
2023-01-15T09:23:27.525Z,93.85
2023-01-15T09:26:19.841Z,93.43
2023-01-15T09:28:47.676Z,93.01
2023-01-15T09:31:16.915Z,92.61
2023-01-15T09:33:45.398Z,92.34
2023-01-15T09:36:24.857Z,91.75
2023-01-15T09:38:52.942Z,91.47
2023-01-15T09:41:39.778Z,91.64
2023-01-15T09:44:26.271Z,91.62
2023-01-15T09:47:09.520Z,91.70
2023-01-15T09:50:08.958Z,91.00
2023-01-15T09:53:14.259Z,91.27
2023-01-15T09:55:50.858Z,91.99
2023-01-15T09:58:22.995Z,92.82
2023-01-15T10:00:51.346Z,92.64
2023-01-15T10:03:23.545Z,92.71
2023-01-15T10:05:55.948Z,91.81
2023-01-15T10:08:26.796Z,91.35
2023-01-15T10:11:02.360Z,90.82
2023-01-15T10:13:44.106Z,90.45
2023-01-15T10:16:14.505Z,90.04
2023-01-15T10:18:43.955Z,89.78
2023-01-15T10:21:30.851Z,89.68
2023-01-15T10:24:26.755Z,90.50
2023-01-15T10:26:58.580Z,91.44
2023-01-15T10:29:43.389Z,91.12
2023-01-15T10:32:14.387Z,92.12
2023-01-15T10:35:10.470Z,91.99
2023-01-15T10:37:42.377Z,91.92
2023-01-15T10:40:45.067Z,90.67
2023-01-15T10:43:44.586Z,91.07
2023-01-15T10:46:18.161Z,91.24
2023-01-15T10:49:01.552Z,89.96
2023-01-15T10:51:46.125Z,90.20
2023-01-15T10:54:40.679Z,90.46
2023-01-15T10:57:12.072Z,89.97
2023-01-15T10:59:46.602Z,89.99
2023-01-15T11:02:27.997Z,90.36
2023-01-15T11:04:55.951Z,89.88
2023-01-15T11:08:06.561Z,90.43
2023-01-15T11:10:33.972Z,90.15
2023-01-15T11:13:41.322Z,90.44
2023-01-15T11:16:34.122Z,89.38
2023-01-15T11:19:22.406Z,90.06
2023-01-15T11:21:50.807Z,89.76
2023-01-15T11:24:18.812Z,89.69
2023-01-15T11:26:52.178Z,89.51
2023-01-15T11:29:34.301Z,90.14
2023-01-15T11:32:02.388Z,89.84
2023-01-15T11:34:33.504Z,89.90
2023-01-15T11:37:04.416Z,90.09
2023-01-15T11:39:32.474Z,89.96
2023-01-15T11:42:20.580Z,89.86
2023-01-15T11:45:14.803Z,90.22
2023-01-15T11:48:14.249Z,90.28
2023-01-15T11:51:00.683Z,90.41
2023-01-15T11:53:30.114Z,90.73
2023-01-15T11:56:02.414Z,90.00
2023-01-15T11:58:38.771Z,89.80
2023-01-15T12:01:07.315Z,90.19
2023-01-15T12:03:36.051Z,89.44
2023-01-15T12:06:08.449Z,90.52
2023-01-15T12:08:44.476Z,90.00
2023-01-15T12:11:27.055Z,90.05
2023-01-15T12:13:58.674Z,90.13
2023-01-15T12:16:53.698Z,89.95
2023-01-15T12:19:41.602Z,90.15
2023-01-15T12:22:49.865Z,89.26
2023-01-15T12:25:24.264Z,89.04
2023-01-15T12:28:00.217Z,89.92
2023-01-15T12:30:41.706Z,89.62
2023-01-15T12:33:19.055Z,89.81
2023-01-15T12:36:17.287Z,89.59
2023-01-15T12:39:22.249Z,89.05
2023-01-15T12:42:16.311Z,89.42
2023-01-15T12:45:01.775Z,89.03
2023-01-15T12:47:52.976Z,89.54
2023-01-15T12:50:36.947Z,89.22
2023-01-15T12:53:14.247Z,89.68
2023-01-15T12:55:58.610Z,89.59
2023-01-15T12:58:48.391Z,89.68
2023-01-15T13:01:28.114Z,89.44
2023-01-15T13:04:14.735Z,88.79
2023-01-15T13:06:51.864Z,89.56
2023-01-15T13:09:39.137Z,89.02
2023-01-15T13:12:14.823Z,89.37
2023-01-15T13:14:47.404Z,89.69
2023-01-15T13:17:24.507Z,89.43
2023-01-15T13:20:22.836Z,89.85
2023-01-15T13:23:26.887Z,89.54
2023-01-15T13:25:54.639Z,89.43
2023-01-15T13:28:42.052Z,89.01
2023-01-15T13:31:30.217Z,89.32
2023-01-15T13:34:00.602Z,89.25
2023-01-15T13:36:41.197Z,89.21
2023-01-15T13:39:16.511Z,88.96
2023-01-15T13:42:07.131Z,89.31
2023-01-15T13:44:38.369Z,89.47
2023-01-15T13:47:06.729Z,89.81
2023-01-15T13:49:38.075Z,90.34
2023-01-15T13:52:07.710Z,90.11
2023-01-15T13:54:41.849Z,89.95
2023-01-15T13:57:10.942Z,90.16
2023-01-15T13:59:44.215Z,90.47
2023-01-15T14:02:28.464Z,90.31
2023-01-15T14:04:57.200Z,90.74
2023-01-15T14:07:35.927Z,90.90
2023-01-15T14:10:22.146Z,91.12
2023-01-15T14:13:02.049Z,90.82
2023-01-15T14:15:48.300Z,90.79
2023-01-15T14:18:25.181Z,90.86
2023-01-15T14:21:08.160Z,91.01
2023-01-15T14:23:57.149Z,90.45
2023-01-15T14:26:48.705Z,90.37
2023-01-15T14:29:48.000Z,90.36
2023-01-15T14:32:31.134Z,90.45
2023-01-15T14:35:00.448Z,90.29
2023-01-15T14:37:49.308Z,90.77
2023-01-15T14:40:25.217Z,90.06
2023-01-15T14:43:02.923Z,90.27
2023-01-15T14:45:43.623Z,90.17
2023-01-15T14:48:21.529Z,90.37
2023-01-15T14:50:50.373Z,90.08
2023-01-15T14:53:29.893Z,89.76
2023-01-15T14:56:27.605Z,90.11
2023-01-15T14:59:29.201Z,89.79
2023-01-15T15:02:07.132Z,89.56
2023-01-15T15:04:49.198Z,89.75
2023-01-15T15:07:18.449Z,90.14
2023-01-15T15:09:48.237Z,90.48
2023-01-15T15:12:31.199Z,90.94
2023-01-15T15:15:13.079Z,91.48
2023-01-15T15:17:59.856Z,91.33
2023-01-15T15:20:31.781Z,91.68
2023-01-15T15:23:09.103Z,91.11
2023-01-15T15:25:39.411Z,91.20
2023-01-15T15:28:10.861Z,91.35
2023-01-15T15:30:45.442Z,91.49
2023-01-15T15:33:20.613Z,91.64
2023-01-15T15:35:54.414Z,91.75
2023-01-15T15:38:24.252Z,92.39
2023-01-15T15:41:02.984Z,92.26
2023-01-15T15:44:09.613Z,92.34
2023-01-15T15:46:57.045Z,93.00
2023-01-15T15:49:25.600Z,92.99
2023-01-15T15:51:54.929Z,92.54
2023-01-15T15:54:24.311Z,93.25
2023-01-15T15:56:59.247Z,92.77
2023-01-15T15:59:38.031Z,92.98
2023-01-15T16:02:21.586Z,92.89
2023-01-15T16:04:51.413Z,92.78
2023-01-15T16:07:25.278Z,92.59
2023-01-15T16:10:14.736Z,92.15
2023-01-15T16:12:46.493Z,92.84
2023-01-15T16:15:38.421Z,92.94
2023-01-15T16:18:06.331Z,92.94
2023-01-15T16:20:34.306Z,92.44
2023-01-15T16:23:04.691Z,92.90
2023-01-15T16:25:34.602Z,92.47
2023-01-15T16:28:02.617Z,92.41
2023-01-15T16:30:32.705Z,92.17
2023-01-15T16:33:05.678Z,92.54
2023-01-15T16:35:59.581Z,92.66
2023-01-15T16:38:27.813Z,92.40
2023-01-15T16:40:56.790Z,92.29
2023-01-15T16:43:25.768Z,92.04
2023-01-15T16:45:56.542Z,91.74
2023-01-15T16:48:30.368Z,92.09
2023-01-15T16:50:58.800Z,91.76
2023-01-15T16:53:37.161Z,92.24
2023-01-15T16:56:06.087Z,91.90
2023-01-15T16:58:36.479Z,92.52
2023-01-15T17:01:23.934Z,92.49
2023-01-15T17:03:53.321Z,92.52
2023-01-15T17:06:23.307Z,92.32
2023-01-15T17:08:51.189Z,92.27
2023-01-15T17:11:30.190Z,91.78
2023-01-15T17:14:20.557Z,92.30
2023-01-15T17:16:48.884Z,92.70
2023-01-15T17:19:17.415Z,92.54
2023-01-15T17:21:48.067Z,92.98
2023-01-15T17:24:16.583Z,92.32
2023-01-15T17:26:45.460Z,92.47
2023-01-15T17:29:13.885Z,92.27
2023-01-15T17:31:46.162Z,92.13
2023-01-15T17:34:14.058Z,91.64
2023-01-15T17:36:42.594Z,92.76
2023-01-15T17:39:14.723Z,92.63
2023-01-15T17:41:42.951Z,92.60
2023-01-15T17:44:12.315Z,92.12
2023-01-15T17:46:41.267Z,92.70
2023-01-15T17:49:09.172Z,92.96
2023-01-15T17:51:38.207Z,92.88
2023-01-15T17:54:06.850Z,93.20
2023-01-15T17:56:54.001Z,92.82
2023-01-15T17:59:40.218Z,92.59
2023-01-15T18:02:30.698Z,92.71
2023-01-15T18:05:18.260Z,92.81
2023-01-15T18:07:46.910Z,92.89
2023-01-15T18:10:19.238Z,92.95
2023-01-15T18:12:47.891Z,92.59
2023-01-15T18:15:17.299Z,92.99
2023-01-15T18:17:46.509Z,93.33
2023-01-15T18:20:14.817Z,93.56
2023-01-15T18:22:44.544Z,93.48
2023-01-15T18:25:12.766Z,93.58
2023-01-15T18:27:43.571Z,93.05
2023-01-15T18:30:12.911Z,93.39
2023-01-15T18:32:41.692Z,92.80
2023-01-15T18:35:12.108Z,93.38
2023-01-15T18:37:41.795Z,93.55
2023-01-15T18:40:10.870Z,93.82
2023-01-15T18:42:58.627Z,93.80
2023-01-15T18:45:48.475Z,93.59
2023-01-15T18:48:16.325Z,93.45
2023-01-15T18:50:44.916Z,93.53
2023-01-15T18:53:16.079Z,94.19
2023-01-15T18:55:44.959Z,93.61
2023-01-15T18:58:12.857Z,94.06
2023-01-15T19:00:41.147Z,94.05
2023-01-15T19:03:09.044Z,94.60
2023-01-15T19:05:38.103Z,94.12
2023-01-15T19:08:07.079Z,94.20
2023-01-15T19:10:35.631Z,94.28
2023-01-15T19:13:06.185Z,94.13
2023-01-15T19:15:54.755Z,94.21
2023-01-15T19:18:41.295Z,94.28
2023-01-15T19:21:12.654Z,94.07
2023-01-15T19:23:40.373Z,94.17
2023-01-15T19:26:08.663Z,94.58
2023-01-15T19:28:37.631Z,94.92
2023-01-15T19:31:27.482Z,94.81
2023-01-15T19:34:13.138Z,94.82
2023-01-15T19:36:46.747Z,95.02
2023-01-15T19:39:16.829Z,95.01
2023-01-15T19:42:04.633Z,94.81
2023-01-15T19:44:52.933Z,94.60
2023-01-15T19:48:06.224Z,95.15
2023-01-15T19:50:44.472Z,95.34
2023-01-15T19:53:13.590Z,95.72
2023-01-15T19:55:45.695Z,95.31
2023-01-15T19:58:14.333Z,95.90
2023-01-15T20:00:44.362Z,96.50
2023-01-15T20:03:13.013Z,96.20
2023-01-15T20:05:41.922Z,96.25
2023-01-15T20:08:13.262Z,96.38
2023-01-15T20:10:49.214Z,96.25
2023-01-15T20:13:38.866Z,96.28
2023-01-15T20:16:14.393Z,96.57
2023-01-15T20:18:43.024Z,96.24
2023-01-15T20:21:14.951Z,96.53
2023-01-15T20:23:43.083Z,96.53
2023-01-15T20:26:12.083Z,96.79
2023-01-15T20:28:41.243Z,96.91
2023-01-15T20:31:17.418Z,96.55
2023-01-15T20:33:46.615Z,96.76
2023-01-15T20:36:15.196Z,96.65
2023-01-15T20:38:43.337Z,96.85
2023-01-15T20:41:31.540Z,97.13
2023-01-15T20:44:18.968Z,97.53
2023-01-15T20:46:46.809Z,97.39
2023-01-15T20:49:28.500Z,97.28
2023-01-15T20:51:56.805Z,96.98
2023-01-15T20:54:26.111Z,97.30
2023-01-15T20:56:54.612Z,96.99
2023-01-15T20:59:22.617Z,97.23
2023-01-15T21:01:50.857Z,97.73
2023-01-15T21:04:20.097Z,97.05
2023-01-15T21:06:48.360Z,97.30
2023-01-15T21:09:16.836Z,97.68
2023-01-15T21:11:44.924Z,97.25
2023-01-15T21:14:13.734Z,97.16
2023-01-15T21:16:42.236Z,98.17
2023-01-15T21:19:10.237Z,97.99
2023-01-15T21:21:38.885Z,98.78
2023-01-15T21:24:07.799Z,98.78
2023-01-15T21:26:36.505Z,97.76
2023-01-15T21:29:04.314Z,97.35
2023-01-15T21:31:32.985Z,97.66
2023-01-15T21:34:01.931Z,97.25
2023-01-15T21:36:30.061Z,97.64
2023-01-15T21:38:59.335Z,97.21
2023-01-15T21:41:45.636Z,97.31
2023-01-15T21:44:43.242Z,97.05
2023-01-15T21:47:13.192Z,97.19
2023-01-15T21:49:42.085Z,96.95
2023-01-15T21:52:18.368Z,97.14
2023-01-15T21:54:46.941Z,96.71
2023-01-15T21:57:15.972Z,96.82
2023-01-15T21:59:44.379Z,96.57
2023-01-15T22:02:17.592Z,97.00
2023-01-15T22:04:45.751Z,96.79
2023-01-15T22:07:14.286Z,96.54
2023-01-15T22:09:42.102Z,96.45
2023-01-15T22:12:10.361Z,96.25
2023-01-15T22:14:39.326Z,96.51
2023-01-15T22:17:07.807Z,96.80
2023-01-15T22:19:36.420Z,96.66
2023-01-15T22:22:11.396Z,95.40
2023-01-15T22:24:41.665Z,95.29
2023-01-15T22:27:12.497Z,95.71
2023-01-15T22:29:40.889Z,95.26
2023-01-15T22:32:12.006Z,95.23
2023-01-15T22:34:40.868Z,95.39
2023-01-15T22:37:08.761Z,94.79
2023-01-15T22:39:37.091Z,94.96
2023-01-15T22:42:24.102Z,94.08
2023-01-15T22:44:53.158Z,94.71
2023-01-15T22:47:21.357Z,94.42
2023-01-15T22:49:49.858Z,94.31
2023-01-15T22:52:17.651Z,94.65
2023-01-15T22:54:47.113Z,95.06
2023-01-15T22:57:16.378Z,94.61
2023-01-15T22:59:45.249Z,94.40
2023-01-15T23:02:13.501Z,94.41
2023-01-15T23:04:41.588Z,94.69
2023-01-15T23:07:10.090Z,93.98
2023-01-15T23:09:40.137Z,94.03
2023-01-15T23:12:07.956Z,93.86
2023-01-15T23:14:37.299Z,93.21
2023-01-15T23:17:05.865Z,93.91
2023-01-15T23:19:34.196Z,93.53
2023-01-15T23:22:02.547Z,93.56
2023-01-15T23:24:31.297Z,93.14
2023-01-15T23:27:00.107Z,93.27
2023-01-15T23:29:29.021Z,93.05
2023-01-15T23:31:56.808Z,92.58
2023-01-15T23:34:26.053Z,93.43
2023-01-15T23:36:53.911Z,92.77
2023-01-15T23:39:21.977Z,92.89
2023-01-15T23:42:08.368Z,92.77
2023-01-15T23:44:55.447Z,92.83
2023-01-15T23:47:23.222Z,92.80
2023-01-15T23:49:51.967Z,93.10
2023-01-15T23:52:20.004Z,92.47
2023-01-15T23:54:47.799Z,93.36
2023-01-15T23:57:16.804Z,93.88
2023-01-15T23:59:44.989Z,93.57
